Time;durP1;ratioP1;P1;durP2;ratioP2;P2;SDS_P1;SDS_P2;PMS_P1;PMS_P2;Temp;Humidity;BMP_temperature;BMP_pressure;BME280_temperature;BME280_humidity;BME280_pressure;Samples;Min_cycle;Max_cycle;Signal;HPM_P1;HPM_P2
2022/05/07 00:00:22;;;;;;;1.83;1.08;;;13.50;86.40;;;;;;5071065;28;20395;-39
2022/05/07 00:02:50;;;;;;;3.03;1.27;;;13.50;87.60;;;;;;5071583;28;20504;-50
2022/05/07 00:05:18;;;;;;;3.15;1.20;;;13.50;87.00;;;;;;5079871;28;20038;-52
2022/05/07 00:07:43;;;;;;;1.90;1.13;;;13.50;87.70;;;;;;5071144;28;20470;-56
2022/05/07 00:10:09;;;;;;;2.13;1.10;;;13.50;87.50;;;;;;5071547;28;20044;-45
2022/05/07 00:12:35;;;;;;;1.58;1.15;;;13.50;87.00;;;;;;5070375;28;20509;-47
2022/05/07 00:15:01;;;;;;;2.92;1.08;;;13.50;88.20;;;;;;5083748;28;20484;-45
2022/05/07 00:20:11;;;;;;;2.53;1.40;;;13.50;87.80;;;;;;5072267;28;20040;-52
2022/05/07 00:22:36;;;;;;;2.60;1.50;;;13.50;88.30;;;;;;5072150;28;20025;-56
2022/05/07 00:25:03;;;;;;;2.03;1.25;;;13.60;89.10;;;;;;5084730;28;20043;-54
2022/05/07 00:27:29;;;;;;;4.85;1.45;;;13.50;88.70;;;;;;5088216;28;20029;-45
2022/05/07 00:29:54;;;;;;;2.25;1.30;;;13.50;89.40;;;;;;5071392;28;20044;-51
2022/05/07 00:32:20;;;;;;;5.90;1.60;;;13.50;88.90;;;;;;5071786;28;20052;-52
2022/05/07 00:34:46;;;;;;;4.65;1.98;;;13.60;89.50;;;;;;5079126;28;20028;-53
2022/05/07 00:37:11;;;;;;;2.50;1.60;;;13.60;89.40;;;;;;5070553;28;20040;-51
2022/05/07 00:39:37;;;;;;;3.53;1.58;;;13.60;88.50;;;;;;5071691;28;20025;-58
2022/05/07 00:42:07;;;;;;;6.05;1.80;;;13.60;89.30;;;;;;5071206;28;20123;-44
2022/05/07 00:44:33;;;;;;;;;;;13.60;88.70;;;;;;5076496;28;20017;-56
2022/05/07 00:47:31;;;;;;;2.30;1.63;;;13.50;89.20;;;;;;5085446;28;20365;-50
2022/05/07 00:52:45;;;;;;;2.88;1.80;;;13.60;88.00;;;;;;5059045;28;20040;-53
2022/05/07 00:55:12;;;;;;;2.20;1.35;;;13.60;88.40;;;;;;5094248;28;20020;-48
2022/05/07 00:57:37;;;;;;;4.55;1.70;;;13.60;88.90;;;;;;5071442;28;20032;-51
2022/05/07 01:00:06;;;;;;;2.45;1.30;;;13.60;88.70;;;;;;5069741;28;20028;-55
2022/05/07 01:02:32;;;;;;;2.50;1.48;;;13.50;88.50;;;;;;5070180;28;20013;-51
2022/05/07 01:04:58;;;;;;;2.28;1.63;;;13.60;88.80;;;;;;5080359;28;20031;-51
2022/05/07 01:07:24;;;;;;;2.53;1.50;;;13.60;88.50;;;;;;5080930;28;20031;-54
2022/05/07 01:09:50;;;;;;;3.10;1.60;;;13.50;88.50;;;;;;5079271;28;20074;-51
2022/05/07 01:12:16;;;;;;;3.65;1.40;;;13.50;88.60;;;;;;5070514;28;20082;-54
2022/05/07 01:14:42;;;;;;;4.32;1.42;;;13.50;88.30;;;;;;5077123;28;20020;-52
2022/05/07 01:17:09;;;;;;;2.33;1.60;;;13.40;88.80;;;;;;5074459;28;20028;-43
2022/05/07 01:19:35;;;;;;;3.55;1.58;;;13.40;89.10;;;;;;5069872;28;20485;-44
2022/05/07 01:22:04;;;;;;;3.83;1.75;;;13.40;88.80;;;;;;5070217;28;20078;-51
2022/05/07 01:24:30;;;;;;;3.45;1.60;;;13.30;89.50;;;;;;5073975;28;20108;-52
2022/05/07 01:26:56;;;;;;;3.85;1.60;;;13.20;89.80;;;;;;5082699;28;20783;-54
2022/05/07 01:29:21;;;;;;;2.50;1.50;;;13.20;90.10;;;;;;5072141;28;20465;-48
2022/05/07 01:31:47;;;;;;;3.35;1.50;;;13.10;90.00;;;;;;5071341;28;20173;-51
2022/05/07 01:34:12;;;;;;;4.30;1.80;;;13.00;90.30;;;;;;5071958;28;20056;-51
2022/05/07 01:36:39;;;;;;;2.67;1.70;;;12.90;90.30;;;;;;5109316;28;20122;-52
2022/05/07 01:39:05;;;;;;;3.05;1.60;;;13.00;90.70;;;;;;5111206;28;20023;-43
2022/05/07 01:41:31;;;;;;;3.30;1.80;;;13.00;90.80;;;;;;5112538;28;20427;-48
2022/05/07 01:43:58;;;;;;;3.85;1.70;;;13.10;90.90;;;;;;5112402;28;20077;-57
2022/05/07 01:49:08;;;;;;;2.78;1.55;;;13.10;90.30;;;;;;5092203;28;20069;-55
2022/05/07 01:51:34;;;;;;;3.95;1.70;;;13.10;90.10;;;;;;5091782;28;20028;-54
2022/05/07 01:54:00;;;;;;;3.70;1.70;;;13.10;90.00;;;;;;5092156;28;20070;-58
2022/05/07 01:56:26;;;;;;;3.03;1.50;;;13.10;90.40;;;;;;5107771;28;20055;-59
2022/05/07 01:58:51;;;;;;;4.20;1.80;;;13.10;90.20;;;;;;5112165;28;20034;-50
2022/05/07 02:01:17;;;;;;;3.80;1.60;;;13.10;90.40;;;;;;5112172;28;20102;-55
2022/05/07 02:03:43;;;;;;;8.30;1.60;;;13.10;90.70;;;;;;5093980;28;20039;-43
2022/05/07 02:06:09;;;;;;;3.58;1.85;;;13.20;90.40;;;;;;5096751;28;20024;-54
2022/05/07 02:08:34;;;;;;;2.65;1.50;;;13.10;90.30;;;;;;5091783;28;20428;-58
2022/05/07 02:11:01;;;;;;;4.32;1.83;;;13.20;90.10;;;;;;5091442;28;20035;-47
2022/05/07 02:13:27;;;;;;;3.50;1.90;;;13.20;89.70;;;;;;5090385;28;20067;-53
2022/05/07 02:15:53;;;;;;;5.78;3.65;;;13.20;90.30;;;;;;5104122;28;20015;-58
2022/05/07 02:18:19;;;;;;;3.38;2.00;;;13.20;90.40;;;;;;5111884;28;20042;-50
2022/05/07 02:20:44;;;;;;;2.50;1.40;;;13.10;90.00;;;;;;5111940;28;20023;-57
2022/05/07 02:23:10;;;;;;;3.80;1.65;;;13.00;90.00;;;;;;5110014;28;20471;-42
2022/05/07 02:25:36;;;;;;;2.70;1.52;;;12.90;90.10;;;;;;5101231;28;20031;-53
2022/05/07 02:28:03;;;;;;;4.53;1.70;;;12.90;90.40;;;;;;5092397;28;20035;-45
2022/05/07 02:30:29;;;;;;;3.80;1.60;;;12.90;90.50;;;;;;5091255;28;20051;-54
2022/05/07 02:32:54;;;;;;;1.83;1.30;;;12.80;90.50;;;;;;5091362;28;20024;-47
2022/05/07 02:35:21;;;;;;;3.28;1.48;;;12.70;90.80;;;;;;5099347;28;20411;-58
2022/05/07 02:37:47;;;;;;;1.80;1.48;;;12.60;90.80;;;;;;5111661;28;20046;-58
2022/05/07 02:40:13;;;;;;;3.25;1.58;;;12.60;91.10;;;;;;5111426;28;20134;-53
2022/05/07 02:42:42;;;;;;;1.80;1.38;;;12.60;91.10;;;;;;5111598;28;20024;-47
2022/05/07 02:45:09;;;;;;;2.25;1.50;;;12.50;91.30;;;;;;5104856;28;20013;-43
2022/05/07 02:47:36;;;;;;;4.15;1.50;;;12.50;91.40;;;;;;5091092;28;20546;-43
2022/05/07 02:50:04;;;;;;;3.47;1.60;;;12.50;91.40;;;;;;5091297;28;20443;-54
2022/05/07 02:52:33;;;;;;;3.05;1.50;;;12.50;91.60;;;;;;5091151;28;20055;-57
2022/05/07 02:54:59;;;;;;;4.03;1.90;;;12.50;91.50;;;;;;5091103;28;20017;-52
2022/05/07 02:57:25;;;;;;;3.47;1.67;;;12.50;91.70;;;;;;5091027;28;20063;-55
2022/05/07 02:59:50;;;;;;;3.65;1.52;;;12.50;91.60;;;;;;5090969;28;20431;-48
2022/05/07 03:02:16;;;;;;;3.63;1.80;;;12.50;91.50;;;;;;5090884;28;20046;-39
2022/05/07 03:04:42;;;;;;;4.82;1.88;;;12.50;91.20;;;;;;5090951;28;20012;-53
2022/05/07 03:07:07;;;;;;;2.63;1.50;;;12.50;91.30;;;;;;5091006;28;20111;-57
2022/05/07 03:09:33;;;;;;;3.67;1.80;;;12.50;91.30;;;;;;5090787;28;20032;-53
2022/05/07 03:11:59;;;;;;;2.83;1.75;;;12.60;91.30;;;;;;5090902;28;20042;-51
2022/05/07 03:14:25;;;;;;;2.97;1.77;;;12.70;91.10;;;;;;5093069;28;20024;-45
2022/05/07 03:16:50;;;;;;;3.45;1.90;;;12.70;91.10;;;;;;5110937;28;20437;-53
2022/05/07 03:19:16;;;;;;;3.53;1.80;;;12.80;91.20;;;;;;5111228;28;20027;-48
2022/05/07 03:21:46;;;;;;;3.40;1.80;;;12.80;91.10;;;;;;5111303;28;20060;-54
2022/05/07 03:24:12;;;;;;;2.67;1.80;;;12.90;90.80;;;;;;5111125;28;20011;-54
2022/05/07 03:26:38;;;;;;;4.93;1.80;;;12.90;90.70;;;;;;5111163;28;20042;-58
2022/05/07 03:29:03;;;;;;;2.88;1.60;;;13.00;90.80;;;;;;5111072;28;20410;-51
2022/05/07 03:31:30;;;;;;;3.28;1.88;;;13.00;90.70;;;;;;5110847;28;20138;-57
2022/05/07 03:33:55;;;;;;;3.42;2.13;;;13.00;91.00;;;;;;5112063;28;20028;-52
2022/05/07 03:36:21;;;;;;;4.25;1.98;;;13.00;90.90;;;;;;5114955;28;20103;-56
2022/05/07 03:38:47;;;;;;;3.15;1.70;;;13.10;90.80;;;;;;5114993;27;20073;-52
2022/05/07 03:41:14;;;;;;;3.17;1.90;;;13.10;90.80;;;;;;5114909;28;20395;-56
2022/05/07 03:43:41;;;;;;;3.90;1.98;;;13.10;90.50;;;;;;5114935;28;20097;-52
2022/05/07 03:46:08;;;;;;;4.25;1.77;;;13.10;90.40;;;;;;5097982;28;20024;-49
2022/05/07 03:48:34;;;;;;;3.88;1.83;;;13.10;90.50;;;;;;5094488;28;20031;-54
2022/05/07 03:51:00;;;;;;;4.07;1.90;;;13.10;90.70;;;;;;5093021;28;20119;-55
2022/05/07 03:53:32;;;;;;;5.32;2.28;;;13.10;90.90;;;;;;5094208;28;20031;-50
2022/05/07 03:56:02;;;;;;;3.28;1.85;;;13.10;90.60;;;;;;5094418;28;20031;-56
2022/05/07 03:58:29;;;;;;;4.13;2.10;;;13.00;90.90;;;;;;5094310;28;20024;-55
2022/05/07 04:00:56;;;;;;;2.55;1.60;;;13.00;91.00;;;;;;5094098;28;20028;-60
2022/05/07 04:03:23;;;;;;;2.58;1.52;;;13.00;91.30;;;;;;5094065;28;20045;-55
2022/05/07 04:05:49;;;;;;;2.85;1.65;;;13.00;91.30;;;;;;5093868;28;20031;-48
2022/05/07 04:08:15;;;;;;;2.80;1.60;;;13.00;91.40;;;;;;5094092;28;20074;-54
2022/05/07 04:10:42;;;;;;;2.90;1.77;;;12.90;91.30;;;;;;5093982;28;20039;-52
2022/05/07 04:13:08;;;;;;;4.50;1.77;;;12.80;91.60;;;;;;5093808;28;20012;-50
2022/05/07 04:15:36;;;;;;;2.80;1.60;;;12.80;91.80;;;;;;5107768;28;20028;-51
2022/05/07 04:18:02;;;;;;;2.42;1.70;;;12.80;91.80;;;;;;5112751;28;20387;-52
2022/05/07 04:20:28;;;;;;;3.88;1.70;;;12.70;91.90;;;;;;5112750;28;20020;-58
2022/05/07 04:22:53;;;;;;;3.22;1.83;;;12.70;92.00;;;;;;5114053;28;20483;-40
2022/05/07 04:25:19;;;;;;;3.80;1.70;;;12.70;92.20;;;;;;5114222;28;20448;-59
2022/05/07 04:27:44;;;;;;;2.60;1.80;;;12.70;92.10;;;;;;5114117;28;20038;-56
2022/05/07 04:30:11;;;;;;;3.13;1.80;;;12.70;92.20;;;;;;5113688;27;20027;-49
2022/05/07 04:32:36;;;;;;;3.40;1.80;;;12.80;91.80;;;;;;5112681;28;20027;-56
2022/05/07 04:35:02;;;;;;;3.90;1.88;;;12.80;92.00;;;;;;5113728;28;20387;-50
2022/05/07 04:37:28;;;;;;;3.65;2.20;;;12.80;91.80;;;;;;5113858;28;20038;-51
2022/05/07 04:39:53;;;;;;;5.18;2.22;;;12.90;91.80;;;;;;5113802;28;20020;-53
2022/05/07 04:42:19;;;;;;;5.03;2.30;;;12.90;91.70;;;;;;5113706;28;20032;-48
2022/05/07 04:44:45;;;;;;;5.20;2.58;;;12.90;91.70;;;;;;5106387;28;20069;-43
2022/05/07 04:47:11;;;;;;;2.58;1.77;;;13.00;91.50;;;;;;5091207;28;20114;-46
2022/05/07 04:49:36;;;;;;;7.40;2.58;;;13.00;91.50;;;;;;5092804;28;20016;-44
2022/05/07 04:52:05;;;;;;;3.72;2.10;;;13.10;91.60;;;;;;5092929;28;20055;-50
2022/05/07 04:54:32;;;;;;;5.18;2.55;;;13.10;91.30;;;;;;5091803;28;20438;-41
2022/05/07 04:56:58;;;;;;;4.03;2.28;;;13.10;91.50;;;;;;5092982;28;20024;-52
2022/05/07 04:59:23;;;;;;;4.43;2.25;;;13.10;91.10;;;;;;5092732;28;20036;-54
2022/05/07 05:01:49;;;;;;;4.03;2.00;;;13.20;91.10;;;;;;5092947;28;20020;-52
2022/05/07 05:04:15;;;;;;;4.05;2.35;;;13.20;91.30;;;;;;5092736;28;20051;-57
2022/05/07 05:06:40;;;;;;;6.25;2.67;;;13.20;90.90;;;;;;5092765;28;20111;-50
2022/05/07 05:09:07;;;;;;;3.47;2.38;;;13.30;90.90;;;;;;5092943;28;20024;-58
2022/05/07 05:11:34;;;;;;;4.03;2.45;;;13.30;90.80;;;;;;5092582;28;20036;-51
2022/05/07 05:13:59;;;;;;;3.92;2.40;;;13.30;90.90;;;;;;5095728;28;20008;-52
2022/05/07 05:16:25;;;;;;;4.95;2.38;;;13.30;90.70;;;;;;5112971;27;20028;-54
2022/05/07 05:18:51;;;;;;;5.15;2.30;;;13.40;90.80;;;;;;5112906;28;20031;-48
2022/05/07 05:21:17;;;;;;;4.55;2.50;;;13.40;90.90;;;;;;5112901;28;20518;-53
2022/05/07 05:23:46;;;;;;;5.32;2.65;;;13.40;90.40;;;;;;5112805;28;20389;-46
2022/05/07 05:26:12;;;;;;;4.55;2.70;;;13.40;90.70;;;;;;5112789;28;20069;-38
2022/05/07 05:28:39;;;;;;;7.82;2.67;;;13.40;90.40;;;;;;5112735;28;20426;-41
2022/05/07 05:31:06;;;;;;;7.13;2.53;;;13.40;90.40;;;;;;5112318;28;20047;-46
2022/05/07 05:33:31;;;;;;;6.05;2.58;;;13.60;91.00;;;;;;5112552;28;20023;-57
2022/05/07 05:35:57;;;;;;;4.35;2.65;;;13.60;90.50;;;;;;5112548;28;20107;-43
2022/05/07 05:38:23;;;;;;;4.68;2.30;;;13.70;91.10;;;;;;5112467;28;20046;-51
2022/05/07 05:40:48;;;;;;;5.35;2.55;;;13.80;91.00;;;;;;5112684;28;20090;-43
2022/05/07 05:43:14;;;;;;;4.88;2.40;;;13.90;90.10;;;;;;5112446;28;20035;-54
2022/05/07 05:45:39;;;;;;;4.00;2.22;;;14.00;90.40;;;;;;5095282;28;20066;-49
2022/05/07 05:48:05;;;;;;;5.53;2.30;;;14.10;90.00;;;;;;5092095;28;20385;-44
2022/05/07 05:50:31;;;;;;;5.45;2.50;;;14.30;89.80;;;;;;5091706;28;20077;-48
2022/05/07 05:52:58;;;;;;;5.57;2.30;;;14.40;88.90;;;;;;5090511;28;20473;-49
2022/05/07 05:55:23;;;;;;;5.70;2.13;;;14.50;88.80;;;;;;5091585;28;20035;-42
2022/05/07 05:57:50;;;;;;;4.07;2.30;;;14.50;87.60;;;;;;5091026;28;20016;-57
2022/05/07 06:00:16;;;;;;;5.93;2.30;;;14.60;88.20;;;;;;5091511;28;20111;-55
2022/05/07 06:02:44;;;;;;;5.75;2.72;;;14.60;87.40;;;;;;5087817;28;20027;-52
2022/05/07 06:05:10;;;;;;;5.28;2.10;;;14.70;88.30;;;;;;5081874;28;20029;-58
2022/05/07 06:07:36;;;;;;;3.60;2.40;;;14.80;87.90;;;;;;5091130;28;20020;-47
2022/05/07 06:10:02;;;;;;;3.95;2.30;;;14.90;86.80;;;;;;5078840;28;20028;-53
2022/05/07 06:12:28;;;;;;;6.18;2.30;;;15.00;86.20;;;;;;5091617;28;20502;-54
2022/05/07 06:14:55;;;;;;;3.85;2.50;;;15.10;85.90;;;;;;5103854;28;20102;-55
2022/05/07 06:17:21;;;;;;;5.10;2.45;;;15.10;85.20;;;;;;5111467;28;20034;-40
2022/05/07 06:19:46;;;;;;;6.45;2.45;;;15.20;85.60;;;;;;5087664;28;20388;-49
2022/05/07 06:22:12;;;;;;;6.32;2.50;;;15.60;86.40;;;;;;5070881;28;20074;-58
2022/05/07 06:27:34;;;;;;;4.43;2.63;;;16.50;79.30;;;;;;5090230;28;20073;-57
2022/05/07 06:30:01;;;;;;;5.53;2.50;;;16.60;79.40;;;;;;5082152;28;20016;-54
2022/05/07 06:32:33;;;;;;;5.10;2.60;;;16.60;78.40;;;;;;5090920;28;20048;-42
2022/05/07 06:34:59;;;;;;;4.47;2.65;;;16.40;79.00;;;;;;5084083;28;20082;-52
2022/05/07 06:37:25;;;;;;;5.38;2.83;;;16.50;79.60;;;;;;5091398;28;20465;-49
2022/05/07 06:39:50;;;;;;;4.38;2.70;;;16.60;79.20;;;;;;5079743;28;20032;-55
2022/05/07 06:42:16;;;;;;;5.20;2.60;;;16.90;82.80;;;;;;5070641;28;20358;-38
2022/05/07 06:44:42;;;;;;;5.70;2.35;;;18.10;77.30;;;;;;5092304;28;20031;-57
2022/05/07 06:47:08;;;;;;;4.72;2.20;;;19.40;71.70;;;;;;5110103;28;20030;-52
2022/05/07 06:49:33;;;;;;;3.40;2.30;;;20.00;66.90;;;;;;5103140;28;20039;-54
2022/05/07 06:51:59;;;;;;;3.47;2.28;;;20.60;65.00;;;;;;5088806;28;20086;-38
2022/05/07 06:54:25;;;;;;;4.25;2.05;;;21.70;65.60;;;;;;5078649;28;20026;-55
2022/05/07 06:56:50;;;;;;;4.10;2.40;;;22.50;60.00;;;;;;5090665;28;20081;-50
2022/05/07 06:59:16;;;;;;;4.03;2.47;;;23.00;57.10;;;;;;5090738;28;20028;-44
2022/05/07 07:01:42;;;;;;;4.82;2.50;;;23.20;56.60;;;;;;5090699;28;20025;-49
2022/05/07 07:04:07;;;;;;;5.32;2.30;;;23.20;55.30;;;;;;5087883;28;20020;-45
2022/05/07 07:06:33;;;;;;;4.13;2.63;;;22.70;56.00;;;;;;5082933;28;20024;-45
2022/05/07 07:08:59;;;;;;;5.50;2.50;;;21.80;57.70;;;;;;5084161;28;20032;-45
2022/05/07 07:11:27;;;;;;;4.90;2.55;;;21.20;62.00;;;;;;5080380;28;20063;-54
2022/05/07 07:13:53;;;;;;;6.85;2.45;;;20.50;62.50;;;;;;5082079;28;20032;-50
2022/05/07 07:16:19;;;;;;;3.13;2.10;;;20.00;65.40;;;;;;5087033;28;20032;-52
2022/05/07 07:18:44;;;;;;;6.45;2.38;;;19.60;67.60;;;;;;5093664;28;20036;-54
2022/05/07 07:21:13;;;;;;;4.65;2.30;;;19.30;68.90;;;;;;5092694;28;20353;-44
2022/05/07 07:23:39;;;;;;;6.78;2.60;;;19.10;70.90;;;;;;5093981;28;20028;-52
2022/05/07 07:26:05;;;;;;;3.90;2.40;;;18.80;69.30;;;;;;5093869;28;20495;-52
2022/05/07 07:28:34;;;;;;;4.82;2.60;;;18.50;70.10;;;;;;5093027;28;20807;-60
2022/05/07 07:30:59;;;;;;;4.15;2.60;;;18.50;71.00;;;;;;5093055;28;20070;-48
2022/05/07 07:33:25;;;;;;;3.53;2.40;;;18.50;71.30;;;;;;5092148;28;20532;-55
2022/05/07 07:35:51;;;;;;;5.18;2.40;;;18.60;71.90;;;;;;5091948;28;20446;-53
2022/05/07 07:38:16;;;;;;;5.43;2.65;;;18.80;71.00;;;;;;5090793;28;20103;-58
2022/05/07 07:40:44;;;;;;;3.28;2.28;;;19.10;71.80;;;;;;5092042;28;20016;-58
2022/05/07 07:43:10;;;;;;;3.60;2.47;;;19.20;69.30;;;;;;5091871;28;20059;-51
2022/05/07 07:48:20;;;;;;;3.78;2.30;;;19.50;69.50;;;;;;5086961;28;20082;-39
2022/05/07 07:50:48;;;;;;;3.58;2.20;;;19.90;71.60;;;;;;5073903;28;20056;-58
2022/05/07 07:53:14;;;;;;;4.18;2.50;;;20.30;68.20;;;;;;5074060;28;20032;-56
2022/05/07 07:55:40;;;;;;;3.50;2.10;;;20.40;64.10;;;;;;5074116;28;20024;-43
2022/05/07 07:58:08;;;;;;;3.45;1.98;;;20.60;67.50;;;;;;5073774;28;20667;-51
2022/05/07 08:00:35;;;;;;;4.68;2.50;;;21.00;66.50;;;;;;5073951;28;20028;-53
2022/05/07 08:03:09;;;;;;;4.22;2.10;;;21.00;64.30;;;;;;5073628;28;20025;-51
2022/05/07 08:05:36;;;;;;;3.67;2.40;;;21.00;63.40;;;;;;5073735;28;20503;-53
2022/05/07 08:13:35;;;;;;;4.65;2.35;;;20.20;63.60;;;;;;5080078;28;20499;-50
2022/05/07 08:16:01;;;;;;;4.63;2.00;;;19.80;66.90;;;;;;5112844;28;20032;-50
2022/05/07 08:18:27;;;;;;;4.15;2.10;;;20.00;68.30;;;;;;5114244;28;20023;-57
2022/05/07 08:20:53;;;;;;;3.95;1.83;;;20.10;68.70;;;;;;5113022;28;20035;-52
2022/05/07 08:23:19;;;;;;;3.13;1.80;;;20.00;62.80;;;;;;5114022;28;20160;-51
2022/05/07 08:25:45;;;;;;;5.82;1.80;;;19.80;65.90;;;;;;5113839;28;20125;-49
2022/05/07 08:28:11;;;;;;;5.00;1.85;;;20.30;65.60;;;;;;5114230;28;20016;-51
2022/05/07 08:30:36;;;;;;;5.28;2.10;;;20.90;65.20;;;;;;5113420;28;20031;-48
2022/05/07 08:33:04;;;;;;;2.97;1.70;;;21.20;62.80;;;;;;5113686;28;20062;-54
2022/05/07 08:35:30;;;;;;;2.95;1.70;;;21.30;61.10;;;;;;5113796;28;20099;-60
2022/05/07 08:37:56;;;;;;;1.88;1.27;;;21.30;63.50;;;;;;5113872;27;20024;-58
2022/05/07 08:40:22;;;;;;;2.75;1.50;;;21.00;60.00;;;;;;5113601;28;20027;-55
2022/05/07 08:42:48;;;;;;;2.28;1.60;;;20.80;63.20;;;;;;5113546;28;20043;-48
2022/05/07 08:45:14;;;;;;;3.38;1.88;;;20.40;61.60;;;;;;5096361;28;20057;-61
2022/05/07 08:47:44;;;;;;;4.40;1.80;;;20.10;63.90;;;;;;5093343;28;20131;-54
2022/05/07 08:50:12;;;;;;;2.30;1.50;;;19.70;64.40;;;;;;5099453;28;20016;-43
2022/05/07 08:52:41;;;;;;;2.78;1.50;;;19.50;64.40;;;;;;5113540;28;20484;-51
2022/05/07 08:55:15;;;;;;;3.40;1.48;;;19.30;66.70;;;;;;5113521;28;20019;-41
2022/05/07 08:57:42;;;;;;;3.05;1.45;;;19.30;66.60;;;;;;5113403;28;20028;-41
2022/05/07 09:00:09;;;;;;;3.30;1.58;;;19.30;66.20;;;;;;5106812;28;20024;-38
2022/05/07 09:02:41;;;;;;;2.40;1.40;;;19.30;65.80;;;;;;5102947;28;20072;-54
2022/05/07 09:05:08;;;;;;;2.60;1.52;;;19.30;66.00;;;;;;5112807;28;20021;-50
2022/05/07 09:07:34;;;;;;;4.55;2.00;;;19.30;65.40;;;;;;5113613;27;20495;-44
2022/05/07 09:10:00;;;;;;;3.25;1.50;;;19.30;64.40;;;;;;5107351;28;20040;-51
2022/05/07 09:12:29;;;;;;;2.65;1.25;;;19.30;67.60;;;;;;5092660;28;20043;-55
2022/05/07 09:15:02;;;;;;;5.35;1.70;;;19.50;68.00;;;;;;5092639;28;20023;-49
2022/05/07 09:17:28;;;;;;;3.78;1.40;;;19.40;66.60;;;;;;5092650;28;20028;-47
2022/05/07 09:19:54;;;;;;;3.45;1.27;;;19.40;67.60;;;;;;5095939;28;20437;-59
2022/05/07 09:22:20;;;;;;;2.60;1.17;;;19.40;67.00;;;;;;5111761;28;20384;-52
2022/05/07 09:24:56;;;;;;;2.42;1.00;;;19.30;65.90;;;;;;5112768;28;20024;-50
2022/05/07 09:27:22;;;;;;;1.90;0.90;;;19.50;66.10;;;;;;5112786;28;20051;-51
2022/05/07 09:30:04;;;;;;;2.83;1.05;;;19.60;63.50;;;;;;5108934;28;20030;-59
2022/05/07 09:32:37;;;;;;;3.97;0.90;;;19.70;65.00;;;;;;5091782;28;20665;-52
2022/05/07 09:37:58;;;;;;;2.08;1.20;;;19.90;64.30;;;;;;5092307;28;20096;-54
2022/05/07 09:40:24;;;;;;;1.30;0.82;;;20.20;64.60;;;;;;5100533;28;20494;-50
2022/05/07 09:42:50;;;;;;;1.00;0.90;;;20.50;62.10;;;;;;5111259;28;20081;-53
2022/05/07 09:45:17;;;;;;;2.13;1.10;;;20.80;62.20;;;;;;5112349;28;20149;-51
2022/05/07 09:47:44;;;;;;;1.80;1.10;;;20.90;59.30;;;;;;5112265;28;20027;-44
2022/05/07 09:50:43;;;;;;;2.53;0.98;;;20.70;59.90;;;;;;5105219;28;20357;-58
2022/05/07 09:58:43;;;;;;;1.85;1.00;;;20.30;61.20;;;;;;5091863;28;20552;-54
2022/05/07 10:01:20;;;;;;;1.25;0.95;;;20.10;62.40;;;;;;5106674;28;20523;-40
2022/05/07 10:04:10;;;;;;;3.13;1.38;;;20.40;64.70;;;;;;5112041;28;20479;-51
2022/05/07 10:06:41;;;;;;;1.83;1.17;;;21.20;61.50;;;;;;5112046;28;20042;-58
2022/05/07 10:09:28;;;;;;;1.10;0.90;;;22.10;57.20;;;;;;5112181;28;20020;-48
2022/05/07 10:11:56;;;;;;;1.27;0.95;;;23.60;59.20;;;;;;5071350;28;20036;-58
2022/05/07 10:14:26;;;;;;;1.25;0.90;;;24.30;50.90;;;;;;5071300;28;20024;-49
2022/05/07 10:16:56;;;;;;;0.73;0.73;;;24.10;51.70;;;;;;5070061;28;20420;-57
2022/05/07 10:19:43;;;;;;;1.85;0.80;;;24.50;56.50;;;;;;5071682;28;20028;-53
2022/05/07 10:22:25;;;;;;;1.98;0.93;;;24.90;53.00;;;;;;5071297;28;20032;-56
2022/05/07 10:25:06;;;;;;;1.45;0.95;;;24.70;51.60;;;;;;5071212;28;20029;-36
2022/05/07 10:27:34;;;;;;;1.00;0.80;;;24.50;49.50;;;;;;5071426;28;20020;-36
2022/05/07 10:30:13;;;;;;;1.08;0.93;;;23.90;50.00;;;;;;5082047;28;20034;-57
2022/05/07 10:33:03;;;;;;;2.80;1.30;;;23.40;51.30;;;;;;5111527;27;20035;-40
2022/05/07 10:35:41;;;;;;;3.92;1.50;;;22.70;53.20;;;;;;5111573;28;20027;-57
2022/05/07 10:38:12;;;;;;;3.25;1.58;;;21.90;55.20;;;;;;5101056;28;20074;-46
2022/05/07 10:40:52;;;;;;;4.13;1.80;;;21.20;56.40;;;;;;5073740;28;20040;-54
2022/05/07 10:43:48;;;;;;;3.50;1.58;;;20.60;59.50;;;;;;5074217;28;20548;-56
2022/05/07 10:46:21;;;;;;;2.95;1.70;;;20.00;62.60;;;;;;5062485;28;20032;-51
2022/05/07 10:48:53;;;;;;;3.70;1.60;;;19.60;65.50;;;;;;5078629;28;20021;-52
2022/05/07 10:51:50;;;;;;;1.88;1.48;;;19.20;65.70;;;;;;5076760;28;20266;-40
2022/05/07 10:54:24;;;;;;;3.47;1.67;;;18.80;67.50;;;;;;5074093;28;20020;-40
2022/05/07 10:56:55;;;;;;;2.00;1.60;;;18.50;66.30;;;;;;5081666;28;20047;-50
2022/05/07 10:59:23;;;;;;;3.95;1.60;;;18.20;66.90;;;;;;5084896;28;20481;-41
2022/05/07 11:01:50;;;;;;;2.57;1.70;;;18.00;69.70;;;;;;5084048;28;20456;-39
2022/05/07 11:04:21;;;;;;;2.45;1.40;;;17.90;69.70;;;;;;5089824;28;20020;-50
2022/05/07 11:06:50;;;;;;;3.47;1.92;;;17.80;71.20;;;;;;5086437;28;20465;-52
2022/05/07 11:09:25;;;;;;;2.63;1.80;;;17.70;71.30;;;;;;5090188;28;20472;-48
2022/05/07 11:11:53;;;;;;;3.75;2.40;;;17.60;71.70;;;;;;5082582;28;20032;-40
2022/05/07 11:14:32;;;;;;;3.92;1.95;;;17.50;71.50;;;;;;5079786;28;20028;-52
2022/05/07 11:17:00;;;;;;;3.67;2.00;;;17.40;73.90;;;;;;5074854;28;20062;-49
2022/05/07 11:19:35;;;;;;;3.75;2.10;;;17.40;72.70;;;;;;5075046;28;20100;-49
2022/05/07 11:22:03;;;;;;;4.85;2.70;;;17.30;73.30;;;;;;5075469;28;20123;-51
2022/05/07 11:24:33;;;;;;;5.43;2.65;;;17.20;73.90;;;;;;5082154;28;20028;-54
2022/05/07 11:27:05;;;;;;;4.88;2.95;;;17.20;75.70;;;;;;5087624;28;20442;-50
2022/05/07 11:29:32;;;;;;;5.55;3.15;;;17.20;76.30;;;;;;5081287;28;20484;-47
2022/05/07 11:32:01;;;;;;;5.03;2.97;;;17.20;74.90;;;;;;5079753;28;20098;-58
2022/05/07 11:34:33;;;;;;;6.22;2.92;;;17.20;75.80;;;;;;5083573;28;20067;-61
2022/05/07 11:37:20;;;;;;;3.88;2.45;;;17.10;75.80;;;;;;5086822;28;20024;-51
2022/05/07 11:39:59;;;;;;;3.95;2.70;;;17.10;78.00;;;;;;5080115;28;20032;-57
2022/05/07 11:42:49;;;;;;;3.70;2.40;;;17.10;78.00;;;;;;5088652;28;20024;-47
2022/05/07 11:45:33;;;;;;;5.38;2.50;;;17.10;79.10;;;;;;5079584;28;20094;-48
2022/05/07 11:48:14;;;;;;;3.47;2.50;;;17.10;79.10;;;;;;5085761;28;20032;-57
2022/05/07 11:50:49;;;;;;;3.97;2.40;;;17.10;80.30;;;;;;5091608;28;20036;-51
2022/05/07 11:53:17;;;;;;;4.05;2.40;;;17.20;80.40;;;;;;5081946;28;20039;-53
2022/05/07 11:55:45;;;;;;;3.90;2.55;;;17.30;80.00;;;;;;5077092;28;20036;-48
2022/05/07 11:58:22;;;;;;;3.67;2.40;;;17.40;79.10;;;;;;5080382;28;20063;-55
2022/05/07 12:00:50;;;;;;;4.28;2.60;;;17.60;78.30;;;;;;5081977;28;20036;-52
2022/05/07 12:03:22;;;;;;;4.43;2.25;;;17.70;75.20;;;;;;5089261;28;20639;-44
2022/05/07 12:05:50;;;;;;;3.25;2.15;;;17.90;76.30;;;;;;5086366;28;20038;-43
2022/05/07 12:08:17;;;;;;;5.00;2.42;;;18.00;73.70;;;;;;5079352;28;20029;-54
2022/05/07 12:10:44;;;;;;;3.78;2.30;;;18.10;72.30;;;;;;5075105;28;20554;-58
2022/05/07 12:13:10;;;;;;;5.05;2.55;;;18.10;70.40;;;;;;5087002;28;20046;-43
2022/05/07 12:18:23;;;;;;;1.65;1.52;;;18.20;68.10;;;;;;5091971;28;20111;-51
2022/05/07 12:20:49;;;;;;;2.53;1.80;;;18.20;68.10;;;;;;5082278;28;20467;-54
2022/05/07 12:31:27;;;;;;;1.98;1.40;;;18.70;66.40;;;;;;5094212;28;20146;-52
2022/05/07 12:33:53;;;;;;;1.83;1.38;;;19.00;65.60;;;;;;5076647;28;20099;-46
2022/05/07 12:36:19;;;;;;;2.20;1.38;;;19.10;63.90;;;;;;5078415;28;20120;-46
2022/05/07 12:38:44;;;;;;;1.95;1.40;;;19.30;63.00;;;;;;5081204;28;20484;-51
2022/05/07 12:41:10;;;;;;;2.53;1.30;;;19.40;63.30;;;;;;5093500;28;20480;-43
2022/05/07 12:43:35;;;;;;;1.75;1.38;;;19.70;64.20;;;;;;5092266;28;20388;-47
2022/05/07 12:46:01;;;;;;;2.58;1.25;;;19.90;61.90;;;;;;5080096;28;20032;-41
2022/05/07 12:48:27;;;;;;;1.40;1.20;;;20.10;60.90;;;;;;5079644;28;20020;-42
2022/05/07 12:50:53;;;;;;;2.83;1.45;;;20.30;60.10;;;;;;5098759;28;20028;-51
2022/05/07 12:53:19;;;;;;;2.80;1.40;;;20.50;62.20;;;;;;5092243;28;20024;-48
2022/05/07 12:55:45;;;;;;;3.63;1.80;;;20.50;61.70;;;;;;5072211;28;20159;-50
2022/05/07 12:58:11;;;;;;;2.30;1.50;;;20.50;59.90;;;;;;5072458;28;20424;-41
2022/05/07 13:00:40;;;;;;;2.10;1.70;;;20.40;62.00;;;;;;5075806;28;20020;-49
2022/05/07 13:03:06;;;;;;;;;;;20.60;59.90;;;;;;5072748;28;20028;-55
2022/05/07 13:05:33;;;;;;;1.95;1.48;;;20.50;59.20;;;;;;5072085;28;19911;-45
2022/05/07 13:08:00;;;;;;;2.50;1.77;;;20.90;63.40;;;;;;5071028;28;20105;-47
2022/05/07 13:10:27;;;;;;;2.33;1.90;;;20.70;59.50;;;;;;5079188;28;20063;-51
2022/05/07 13:12:53;;;;;;;2.97;1.80;;;20.60;59.30;;;;;;5090166;28;20043;-51
2022/05/07 13:15:18;;;;;;;3.65;1.80;;;20.60;62.80;;;;;;5088417;28;20024;-49
2022/05/07 13:17:44;;;;;;;3.03;2.05;;;20.40;60.70;;;;;;5080348;28;20239;-44
2022/05/07 13:20:10;;;;;;;3.15;1.70;;;20.10;60.40;;;;;;5077883;28;20051;-52
2022/05/07 13:22:35;;;;;;;2.65;1.88;;;19.90;61.60;;;;;;5075551;28;20383;-41
2022/05/07 13:25:01;;;;;;;2.38;1.75;;;19.70;62.70;;;;;;5073640;28;20055;-53
2022/05/07 13:27:27;;;;;;;2.88;2.05;;;19.70;61.50;;;;;;5080436;28;20436;-51
2022/05/07 13:29:53;;;;;;;2.58;1.95;;;19.40;62.20;;;;;;5090912;28;20020;-56